Time;durP1;ratioP1;P1;durP2;ratioP2;P2;SDS_P1;SDS_P2;PMS_P1;PMS_P2;Temp;Humidity;BMP_temperature;BMP_pressure;BME280_temperature;BME280_humidity;BME280_pressure;Samples;Min_cycle;Max_cycle;Signal;HPM_P1;HPM_P2
2022/07/10 00:01:32;;;;;;;4.28;3.88;;;16.10;1.00;;;;;;5013820;28;20077;-91
2022/07/10 00:04:19;;;;;;;7.38;3.50;;;16.00;99.90;;;;;;5005718;28;20069;-91
2022/07/10 00:07:07;;;;;;;4.43;3.88;;;15.90;99.90;;;;;;5008556;28;20053;-91
2022/07/10 00:09:56;;;;;;;5.20;3.97;;;15.90;99.90;;;;;;5016987;28;20046;-90
2022/07/10 00:12:48;;;;;;;4.18;3.72;;;16.00;1.00;;;;;;5021465;28;20061;-91
2022/07/10 00:15:37;;;;;;;5.47;3.90;;;16.00;99.90;;;;;;5010635;28;20057;-90
2022/07/10 00:18:24;;;;;;;4.25;3.60;;;16.00;99.90;;;;;;4996564;28;20105;-90
2022/07/10 00:21:12;;;;;;;6.20;3.38;;;16.00;99.90;;;;;;5000680;28;20430;-90
2022/07/10 00:23:59;;;;;;;4.25;3.85;;;16.00;99.90;;;;;;5019172;28;20472;-90
2022/07/10 00:26:47;;;;;;;6.63;4.00;;;16.00;99.90;;;;;;5001997;28;20046;-89
2022/07/10 00:29:34;;;;;;;6.38;3.60;;;16.10;1.00;;;;;;5016224;28;20038;-91
2022/07/10 00:32:22;;;;;;;5.72;3.70;;;16.10;99.90;;;;;;4985917;28;20093;-91
2022/07/10 00:35:11;;;;;;;5.38;3.50;;;16.20;99.90;;;;;;5015445;28;20042;-91
2022/07/10 00:38:01;;;;;;;4.70;3.50;;;16.20;99.90;;;;;;5009381;28;20061;-91
2022/07/10 00:40:48;;;;;;;6.45;3.85;;;16.30;99.90;;;;;;5019615;28;20046;-89
2022/07/10 00:43:52;;;;;;;4.00;3.42;;;16.20;71.40;;;;;;5008662;28;20060;-91
2022/07/10 00:46:40;;;;;;;4.15;3.55;;;16.30;1.00;;;;;;5009593;28;20042;-91
2022/07/10 00:49:27;;;;;;;5.43;3.78;;;16.30;99.90;;;;;;5016998;28;20038;-91
2022/07/10 00:52:16;;;;;;;4.25;3.38;;;16.30;1.00;;;;;;5015074;28;20050;-91
2022/07/10 00:55:05;;;;;;;6.90;3.85;;;16.30;1.00;;;;;;5010186;28;20046;-91
2022/07/10 00:57:52;;;;;;;5.88;3.88;;;16.30;14.00;;;;;;5004367;28;20049;-91
2022/07/10 01:00:41;;;;;;;4.45;3.88;;;16.30;99.90;;;;;;4991546;28;20057;-90
2022/07/10 01:03:28;;;;;;;5.65;4.05;;;16.20;1.00;;;;;;5000382;28;20053;-91
2022/07/10 01:06:16;;;;;;;4.82;3.75;;;16.10;99.90;;;;;;5016591;28;20089;-88
2022/07/10 01:09:06;;;;;;;7.05;4.10;;;16.10;1.00;;;;;;5018081;28;20046;-91
2022/07/10 01:11:54;;;;;;;5.85;4.00;;;16.00;1.00;;;;;;5018276;28;20139;-91
2022/07/10 01:14:43;;;;;;;6.43;4.55;;;16.00;99.90;;;;;;5015294;28;20467;-90
2022/07/10 01:17:31;;;;;;;5.25;4.30;;;16.10;99.90;;;;;;5020108;28;20447;-90
2022/07/10 01:20:18;;;;;;;6.10;4.40;;;16.00;99.90;;;;;;5027880;28;20046;-90
2022/07/10 01:23:05;;;;;;;4.75;3.75;;;15.90;99.90;;;;;;5015804;28;20050;-90
2022/07/10 01:25:52;;;;;;;7.75;4.20;;;15.90;99.90;;;;;;5009064;28;20041;-91
2022/07/10 01:28:40;;;;;;;6.63;4.32;;;16.00;99.90;;;;;;5016432;28;20046;-90
2022/07/10 01:31:27;;;;;;;7.10;4.68;;;15.90;8.40;;;;;;5006434;28;20059;-90
2022/07/10 01:34:15;;;;;;;7.47;4.63;;;15.90;99.90;;;;;;5025071;28;20073;-90
2022/07/10 01:37:02;;;;;;;6.50;4.90;;;15.90;1.00;;;;;;5024327;28;20452;-89
2022/07/10 01:39:49;;;;;;;8.82;5.07;;;15.80;27.20;;;;;;5008094;28;20072;-91
2022/07/10 01:42:37;;;;;;;6.72;5.75;;;15.70;99.90;;;;;;5018679;28;20057;-89
2022/07/10 01:45:25;;;;;;;7.68;5.75;;;15.60;25.00;;;;;;4996375;28;20076;-90
2022/07/10 01:48:12;;;;;;;10.40;6.43;;;15.40;99.90;;;;;;5026236;28;20046;-90
2022/07/10 01:50:59;;;;;;;11.00;7.40;;;15.30;99.90;;;;;;5016768;28;20125;-90
2022/07/10 01:53:51;;;;;;;9.55;6.72;;;15.30;99.90;;;;;;5012763;28;20050;-91
2022/07/10 01:56:38;;;;;;;9.48;6.97;;;15.20;99.90;;;;;;5017043;28;20069;-89
2022/07/10 01:59:26;;;;;;;9.20;6.97;;;15.20;99.90;;;;;;5017072;28;20057;-90
2022/07/10 02:02:13;;;;;;;7.97;7.18;;;15.10;1.00;;;;;;5003157;28;20154;-90
2022/07/10 02:05:00;;;;;;;9.50;6.90;;;15.00;1.00;;;;;;5001292;28;20050;-89
2022/07/10 02:07:49;;;;;;;9.27;7.97;;;14.90;1.00;;;;;;5013449;28;20112;-89
2022/07/10 02:10:37;;;;;;;12.50;9.02;;;14.80;1.00;;;;;;5013675;28;20069;-89
2022/07/10 02:13:29;;;;;;;11.98;9.18;;;14.60;1.00;;;;;;4999847;28;20090;-88
2022/07/10 02:16:16;;;;;;;9.67;8.70;;;14.50;1.00;;;;;;5005497;28;20041;-88
2022/07/10 02:19:03;;;;;;;12.75;9.32;;;14.50;1.00;;;;;;4995066;28;20069;-89
2022/07/10 02:21:51;;;;;;;15.30;10.27;;;14.40;1.00;;;;;;5011653;28;20053;-88
2022/07/10 02:24:41;;;;;;;12.55;10.05;;;14.30;1.00;;;;;;5010834;28;20070;-89
2022/07/10 02:27:28;;;;;;;15.18;11.10;;;14.20;5.40;;;;;;5003593;28;20466;-90
2022/07/10 02:30:15;;;;;;;17.13;11.93;;;14.20;17.40;;;;;;4997316;28;20129;-89
2022/07/10 02:33:03;;;;;;;15.13;12.25;;;14.30;26.40;;;;;;5017004;28;20053;-89
2022/07/10 02:35:52;;;;;;;14.77;12.57;;;14.30;29.50;;;;;;5005899;28;20046;-90
2022/07/10 02:38:40;;;;;;;18.27;13.77;;;14.30;34.90;;;;;;5016347;28;20048;-89
2022/07/10 02:41:28;;;;;;;14.55;13.05;;;14.40;31.60;;;;;;5020231;28;20042;-90
2022/07/10 02:44:15;;;;;;;17.20;13.07;;;14.40;23.80;;;;;;5016443;28;20144;-90
2022/07/10 02:47:05;;;;;;;15.75;12.90;;;14.50;15.70;;;;;;5015131;28;20499;-89
2022/07/10 02:49:55;;;;;;;17.70;13.13;;;14.60;9.60;;;;;;5014429;28;20388;-89
2022/07/10 02:52:42;;;;;;;18.02;13.90;;;14.70;5.10;;;;;;5013005;28;20045;-91
2022/07/10 02:55:35;;;;;;;17.33;13.82;;;14.80;1.60;;;;;;5014262;28;20038;-91
2022/07/10 02:58:25;;;;;;;18.92;14.35;;;14.90;1.00;;;;;;5015483;28;20136;-90
2022/07/10 03:01:17;;;;;;;18.25;14.65;;;14.90;1.00;;;;;;5015106;28;20136;-89
2022/07/10 03:04:07;;;;;;;19.98;15.95;;;15.00;1.00;;;;;;5001600;28;20065;-90
2022/07/10 03:06:54;;;;;;;18.15;16.02;;;15.00;1.00;;;;;;5012990;28;20455;-90
2022/07/10 03:09:43;;;;;;;20.13;16.40;;;15.00;1.00;;;;;;5017538;28;20109;-89
2022/07/10 03:12:33;;;;;;;22.10;16.77;;;15.00;1.00;;;;;;5013467;28;20042;-89
2022/07/10 03:15:22;;;;;;;22.77;18.70;;;14.80;1.00;;;;;;5016969;28;20077;-89
2022/07/10 03:18:10;;;;;;;30.05;20.13;;;14.70;9.80;;;;;;4985214;28;20046;-89
2022/07/10 03:21:01;;;;;;;27.85;19.92;;;14.60;30.00;;;;;;5019146;28;20466;-89
2022/07/10 03:23:48;;;;;;;24.80;20.42;;;14.50;40.20;;;;;;5010548;28;20082;-90
2022/07/10 03:26:36;;;;;;;29.75;22.52;;;14.40;57.10;;;;;;5020051;28;20500;-90
2022/07/10 03:29:25;;;;;;;24.85;21.35;;;14.40;65.20;;;;;;4999511;28;20136;-89
2022/07/10 03:32:12;;;;;;;28.75;21.67;;;14.30;74.40;;;;;;5028500;28;20037;-92
2022/07/10 03:35:00;;;;;;;26.08;21.33;;;14.30;85.20;;;;;;5013032;28;20128;-90
2022/07/10 03:37:47;;;;;;;31.52;21.63;;;14.40;91.70;;;;;;5027707;28;20077;-90
2022/07/10 03:40:37;;;;;;;29.67;22.55;;;14.40;90.10;;;;;;4980114;28;20479;-88
2022/07/10 03:43:26;;;;;;;27.65;20.02;;;14.40;86.40;;;;;;5028987;28;20066;-89
2022/07/10 03:46:14;;;;;;;24.73;19.38;;;14.40;78.80;;;;;;5029235;28;20116;-90
2022/07/10 03:49:01;;;;;;;23.95;19.17;;;14.50;79.10;;;;;;5024773;28;20049;-90
2022/07/10 03:51:50;;;;;;;24.50;18.35;;;14.50;64.30;;;;;;5013849;28;20121;-87
2022/07/10 03:54:38;;;;;;;24.80;18.58;;;14.50;60.90;;;;;;5007199;28;20046;-87
2022/07/10 04:00:34;;;;;;;23.42;17.63;;;14.40;50.70;;;;;;5009473;28;20081;-88
2022/07/10 04:03:49;;;;;;;21.85;17.23;;;14.40;55.60;;;;;;5009754;28;20062;-90
2022/07/10 04:06:38;;;;;;;19.58;17.33;;;14.50;53.10;;;;;;5022761;28;20053;-91
2022/07/10 04:09:27;;;;;;;23.63;17.38;;;14.60;45.60;;;;;;5007192;28;20046;-89
2022/07/10 04:12:15;;;;;;;20.58;14.98;;;14.70;24.10;;;;;;5024489;28;20145;-90
2022/07/10 04:15:02;;;;;;;17.70;13.75;;;14.80;1.00;;;;;;5003460;28;20052;-90
2022/07/10 04:17:50;;;;;;;21.05;16.13;;;15.00;1.00;;;;;;5013749;28;20073;-90
2022/07/10 04:20:38;;;;;;;17.15;13.90;;;15.10;1.00;;;;;;5016375;28;20065;-90
2022/07/10 04:23:25;;;;;;;18.17;14.52;;;15.10;1.00;;;;;;5010183;28;20073;-89
2022/07/10 04:26:12;;;;;;;18.58;13.07;;;15.10;1.00;;;;;;5024175;28;20145;-89
2022/07/10 04:28:59;;;;;;;18.90;12.90;;;15.20;1.00;;;;;;5016172;28;20141;-90
2022/07/10 04:31:46;;;;;;;17.10;12.93;;;15.20;1.00;;;;;;5011121;28;20042;-90
2022/07/10 04:34:33;;;;;;;20.10;13.10;;;15.20;1.00;;;;;;5015482;28;20447;-90
2022/07/10 04:37:21;;;;;;;17.25;12.30;;;15.30;1.00;;;;;;5022018;28;20065;-91
2022/07/10 04:40:09;;;;;;;12.93;11.45;;;15.40;1.00;;;;;;5019503;28;20050;-88
2022/07/10 04:42:56;;;;;;;15.30;10.65;;;15.40;1.00;;;;;;4997815;28;20242;-86
2022/07/10 04:45:46;;;;;;;14.30;10.60;;;15.50;1.00;;;;;;5019074;28;20152;-89
2022/07/10 04:48:34;;;;;;;13.77;10.52;;;15.60;1.00;;;;;;5017708;28;20244;-90
2022/07/10 04:51:24;;;;;;;12.90;8.90;;;15.60;1.00;;;;;;5005768;28;20065;-90
2022/07/10 04:54:18;;;;;;;11.27;9.20;;;15.60;1.00;;;;;;5025132;28;20053;-90
2022/07/10 04:57:05;;;;;;;14.05;8.75;;;15.60;99.90;;;;;;4995234;28;20169;-91
2022/07/10 04:59:53;;;;;;;13.88;8.45;;;15.60;99.90;;;;;;5010756;28;20398;-89
2022/07/10 05:02:40;;;;;;;13.18;7.57;;;15.70;99.90;;;;;;5010154;28;20065;-89
2022/07/10 05:05:28;;;;;;;11.55;6.88;;;15.80;99.90;;;;;;5023132;28;20055;-89
2022/07/10 05:08:17;;;;;;;13.55;6.90;;;15.80;99.90;;;;;;4998418;28;20058;-89
2022/07/10 05:11:07;;;;;;;9.73;6.72;;;15.70;99.90;;;;;;5020784;28;20046;-87
2022/07/10 05:13:54;;;;;;;13.75;6.55;;;15.60;99.90;;;;;;5010079;28;20053;-91
2022/07/10 05:16:42;;;;;;;11.27;6.43;;;15.50;99.90;;;;;;5016812;28;20109;-88
2022/07/10 05:19:29;;;;;;;9.20;5.68;;;15.50;99.90;;;;;;5008708;28;20637;-91
2022/07/10 05:22:16;;;;;;;13.30;6.13;;;15.40;99.90;;;;;;5017650;28;20133;-90
2022/07/10 05:25:07;;;;;;;10.80;6.60;;;15.40;99.90;;;;;;5016282;28;20108;-89
2022/07/10 05:27:56;;;;;;;9.20;6.40;;;15.40;99.90;;;;;;5020832;28;20077;-91
2022/07/10 05:30:43;;;;;;;8.65;5.93;;;15.40;99.90;;;;;;5010408;28;20489;-91
2022/07/10 05:33:33;;;;;;;8.50;6.43;;;15.50;99.90;;;;;;5016116;28;20042;-89
2022/07/10 05:36:21;;;;;;;7.72;6.00;;;15.50;99.90;;;;;;5022614;28;20065;-87
2022/07/10 05:39:09;;;;;;;8.48;5.60;;;15.50;99.90;;;;;;5026386;28;20074;-90
2022/07/10 05:41:57;;;;;;;9.05;4.95;;;15.40;99.90;;;;;;5020396;28;20105;-89
2022/07/10 05:44:45;;;;;;;9.40;5.95;;;15.30;99.90;;;;;;5029922;28;20108;-89
2022/07/10 05:47:35;;;;;;;7.07;4.95;;;15.30;99.90;;;;;;5028196;28;20157;-89
2022/07/10 05:50:25;;;;;;;5.60;4.65;;;15.30;99.90;;;;;;5042039;28;20070;-88
2022/07/10 05:53:12;;;;;;;7.75;4.53;;;15.40;99.90;;;;;;5021826;28;20038;-90
2022/07/10 05:56:01;;;;;;;9.40;4.28;;;15.50;99.90;;;;;;5027471;28;20130;-89
2022/07/10 05:58:51;;;;;;;9.38;4.80;;;15.70;99.90;;;;;;5046564;28;20037;-86
2022/07/10 06:01:40;;;;;;;5.55;3.97;;;15.90;99.90;;;;;;5034836;28;20085;-85
2022/07/10 06:04:28;;;;;;;10.15;3.80;;;16.20;99.90;;;;;;5041164;28;20037;-83
2022/07/10 06:07:15;;;;;;;7.38;3.75;;;16.40;99.90;;;;;;5034522;28;20048;-85
2022/07/10 06:10:04;;;;;;;6.60;3.10;;;16.40;99.90;;;;;;5029941;28;20092;-90
2022/07/10 06:12:51;;;;;;;5.53;2.72;;;16.60;99.90;;;;;;5031000;28;20038;-90
2022/07/10 06:15:41;;;;;;;6.28;3.30;;;16.50;99.90;;;;;;5033674;28;20118;-91
2022/07/10 06:18:28;;;;;;;8.00;3.45;;;16.40;99.90;;;;;;5052117;28;20041;-89
2022/07/10 06:21:21;;;;;;;7.13;2.60;;;16.20;99.90;;;;;;5040290;28;20053;-89
2022/07/10 06:24:12;;;;;;;8.07;2.95;;;16.30;99.90;;;;;;5041660;28;20038;-91
2022/07/10 06:26:59;;;;;;;6.80;2.72;;;16.20;99.90;;;;;;5004881;28;20451;-89
2022/07/10 06:29:49;;;;;;;6.25;2.60;;;16.10;99.90;;;;;;5035918;28;20050;-90
2022/07/10 06:32:36;;;;;;;4.30;2.25;;;16.00;99.90;;;;;;5011298;28;20073;-91
2022/07/10 06:35:25;;;;;;;7.22;2.35;;;15.90;99.90;;;;;;4996257;28;20049;-89
2022/07/10 06:38:15;;;;;;;8.52;2.78;;;15.90;99.90;;;;;;5025178;28;20049;-91
2022/07/10 06:41:05;;;;;;;5.65;2.28;;;16.10;99.90;;;;;;5010401;28;20065;-91
2022/07/10 06:43:52;;;;;;;9.45;2.40;;;16.20;99.90;;;;;;5038221;28;20053;-91
2022/07/10 06:46:39;;;;;;;5.65;2.20;;;16.30;99.90;;;;;;5022835;28;20041;-92
2022/07/10 06:49:27;;;;;;;7.97;2.60;;;16.40;99.90;;;;;;5011152;28;20205;-90
2022/07/10 06:52:14;;;;;;;5.13;2.28;;;16.50;99.90;;;;;;5015285;28;20097;-91
2022/07/10 06:55:06;;;;;;;7.35;2.78;;;16.60;99.90;;;;;;5023782;28;20046;-91
2022/07/10 06:57:57;;;;;;;5.35;2.15;;;16.60;99.90;;;;;;5022579;28;20045;-91
2022/07/10 07:00:47;;;;;;;6.20;2.30;;;16.40;99.90;;;;;;5033477;28;20100;-91
2022/07/10 07:03:35;;;;;;;7.78;2.35;;;16.20;99.90;;;;;;5008062;28;20120;-91
2022/07/10 07:06:22;;;;;;;5.63;2.50;;;16.20;99.90;;;;;;5009505;28;20385;-88
2022/07/10 07:09:12;;;;;;;6.38;2.25;;;16.30;99.90;;;;;;5025955;28;20053;-92
2022/07/10 07:12:00;;;;;;;4.95;2.40;;;16.30;99.90;;;;;;5023991;28;20049;-92
2022/07/10 07:14:47;;;;;;;4.10;1.75;;;16.20;99.90;;;;;;5007007;28;20054;-91
2022/07/10 07:18:31;;;;;;;6.00;2.00;;;16.10;99.90;;;;;;5024177;28;20045;-91
2022/07/10 07:23:59;;;;;;;6.32;2.10;;;16.20;99.90;;;;;;5022554;28;20045;-92
2022/07/10 07:26:47;;;;;;;5.38;1.83;;;16.30;99.90;;;;;;5017617;28;20049;-92
2022/07/10 07:29:34;;;;;;;4.65;1.95;;;16.40;99.90;;;;;;5018630;28;20052;-91
2022/07/10 07:32:24;;;;;;;8.05;2.42;;;16.50;99.90;;;;;;5041460;28;20056;-90
2022/07/10 07:35:14;;;;;;;6.88;2.30;;;16.60;99.90;;;;;;5021176;28;20109;-90
2022/07/10 07:38:05;;;;;;;4.85;1.73;;;16.70;99.90;;;;;;5029313;28;20141;-90
2022/07/10 07:40:52;;;;;;;5.63;1.83;;;16.70;99.90;;;;;;5013539;28;20053;-91
2022/07/10 07:43:39;;;;;;;6.22;1.77;;;17.00;99.90;;;;;;5011136;28;20113;-92
2022/07/10 07:46:27;;;;;;;3.67;1.77;;;17.10;99.90;;;;;;5024772;28;20054;-92
2022/07/10 07:49:14;;;;;;;6.75;1.92;;;17.30;99.90;;;;;;5020953;28;20049;-91
2022/07/10 07:52:02;;;;;;;8.68;2.20;;;17.30;99.90;;;;;;5009983;28;20105;-92
2022/07/10 07:54:52;;;;;;;7.22;2.05;;;17.60;99.90;;;;;;5009333;28;20046;-92
2022/07/10 07:57:39;;;;;;;3.85;1.48;;;18.50;99.90;;;;;;5003997;28;20447;-90
2022/07/10 08:00:28;;;;;;;6.15;1.50;;;19.50;99.90;;;;;;5020280;28;20117;-89
2022/07/10 08:03:15;;;;;;;4.05;1.50;;;20.90;99.90;;;;;;5012374;28;20057;-89
2022/07/10 08:06:03;;;;;;;8.68;2.00;;;21.80;96.40;;;;;;5018590;28;20050;-92
2022/07/10 08:08:50;;;;;;;2.35;1.13;;;21.30;93.60;;;;;;5018048;28;20325;-89
2022/07/10 08:11:40;;;;;;;5.82;1.95;;;21.60;94.30;;;;;;5012205;28;20061;-90
2022/07/10 08:14:27;;;;;;;6.03;1.73;;;21.70;91.30;;;;;;5022144;28;20097;-91
2022/07/10 08:17:14;;;;;;;5.10;1.33;;;21.80;99.90;;;;;;5015387;28;20042;-89
2022/07/10 08:20:03;;;;;;;6.00;1.73;;;21.80;99.90;;;;;;5013442;28;20426;-91
2022/07/10 08:22:53;;;;;;;5.10;1.63;;;21.80;99.90;;;;;;5021452;28;20049;-90
2022/07/10 08:25:46;;;;;;;2.83;1.10;;;22.60;99.90;;;;;;5013519;28;20106;-91
2022/07/10 08:28:33;;;;;;;4.82;1.45;;;22.90;99.90;;;;;;4998736;28;20037;-88
2022/07/10 08:31:25;;;;;;;3.05;1.40;;;23.30;99.90;;;;;;5018182;28;20046;-91
2022/07/10 08:34:12;;;;;;;5.07;1.42;;;23.10;99.90;;;;;;5011897;28;20049;-91
2022/07/10 08:37:00;;;;;;;2.63;0.93;;;23.70;99.90;;;;;;5003256;28;20042;-88
2022/07/10 08:39:51;;;;;;;4.30;1.40;;;24.10;99.90;;;;;;5013352;28;20077;-90
2022/07/10 08:42:39;;;;;;;6.20;1.27;;;24.20;99.90;;;;;;5024693;28;20046;-91
2022/07/10 08:45:30;;;;;;;7.20;1.52;;;24.30;99.90;;;;;;5017230;28;20049;-91
2022/07/10 08:48:21;;;;;;;4.00;1.20;;;23.90;99.90;;;;;;5017416;28;20038;-93
2022/07/10 08:51:15;;;;;;;4.45;1.50;;;23.30;99.90;;;;;;4995420;28;20261;-91
2022/07/10 08:54:06;;;;;;;5.43;1.70;;;22.60;99.90;;;;;;5026661;28;20101;-91
2022/07/10 08:56:54;;;;;;;4.82;1.42;;;22.10;99.90;;;;;;5012406;28;20123;-91
2022/07/10 08:59:43;;;;;;;3.35;1.50;;;21.40;99.90;;;;;;4996168;28;20064;-90
2022/07/10 09:02:30;;;;;;;5.05;1.45;;;21.00;99.90;;;;;;5018058;28;20041;-91
2022/07/10 09:05:20;;;;;;;2.97;1.70;;;20.60;99.90;;;;;;5017798;28;20467;-91
2022/07/10 09:08:23;;;;;;;4.30;1.65;;;20.50;99.90;;;;;;5027912;28;20045;-90
2022/07/10 09:11:17;;;;;;;;;;;21.10;99.90;;;;;;5028315;28;20042;-89
2022/07/10 09:14:08;;;;;;;3.78;1.33;;;22.30;99.90;;;;;;5012133;28;19922;-89
2022/07/10 09:16:58;;;;;;;3.78;1.40;;;22.10;99.90;;;;;;5017135;28;20349;-90
2022/07/10 09:19:45;;;;;;;9.57;1.60;;;21.30;99.90;;;;;;5015996;28;20084;-91
2022/07/10 09:22:35;;;;;;;2.05;1.23;;;20.80;99.90;;;;;;5015429;28;20069;-89
2022/07/10 09:25:32;;;;;;;3.67;1.33;;;20.60;99.90;;;;;;5020350;28;20111;-90
2022/07/10 09:28:21;;;;;;;3.80;1.48;;;20.40;99.90;;;;;;5024521;28;20125;-90
2022/07/10 09:31:09;;;;;;;3.75;1.65;;;20.20;99.90;;;;;;5017031;28;20043;-93
2022/07/10 09:33:56;;;;;;;5.43;1.70;;;19.60;99.90;;;;;;5000388;28;20074;-90
2022/07/10 09:36:44;;;;;;;3.28;1.20;;;20.50;99.90;;;;;;5011372;28;20061;-89
2022/07/10 09:39:33;;;;;;;4.43;1.70;;;22.10;99.90;;;;;;5022730;28;20046;-90
2022/07/10 09:42:34;;;;;;;4.45;1.35;;;23.20;99.90;;;;;;4993896;28;20042;-92
2022/07/10 09:45:22;;;;;;;7.72;1.52;;;23.20;99.90;;;;;;5028891;28;20176;-91
2022/07/10 09:48:09;;;;;;;3.22;1.38;;;22.20;99.90;;;;;;5024550;28;20419;-92
2022/07/10 09:50:57;;;;;;;2.63;1.38;;;21.30;99.90;;;;;;5008811;28;20097;-91
2022/07/10 09:53:47;;;;;;;7.05;1.70;;;20.70;99.90;;;;;;5017833;28;20062;-91
2022/07/10 09:56:51;;;;;;;4.85;2.00;;;20.70;99.90;;;;;;5023339;28;20046;-92
2022/07/10 09:59:39;;;;;;;6.40;1.65;;;22.10;99.90;;;;;;5006791;28;20050;-91
2022/07/10 10:02:27;;;;;;;3.60;1.40;;;23.30;99.90;;;;;;5029960;28;20410;-92
2022/07/10 10:05:16;;;;;;;4.57;1.80;;;23.00;99.90;;;;;;5029296;28;20037;-90
2022/07/10 10:08:18;;;;;;;5.30;1.50;;;22.20;99.90;;;;;;5024167;28;20097;-90
2022/07/10 10:11:08;;;;;;;2.88;1.20;;;22.60;99.90;;;;;;5013560;28;20132;-91
2022/07/10 10:14:02;;;;;;;4.88;1.60;;;22.70;99.90;;;;;;5001405;28;20042;-92
2022/07/10 10:16:52;;;;;;;3.22;1.77;;;22.20;99.90;;;;;;5029612;28;20042;-89
2022/07/10 10:22:53;;;;;;;4.90;1.30;;;22.90;99.90;;;;;;5016966;28;20391;-91
2022/07/10 10:25:41;;;;;;;3.35;1.48;;;24.90;99.90;;;;;;5008282;28;20499;-91
2022/07/10 10:28:28;;;;;;;7.07;1.77;;;24.90;99.90;;;;;;5023905;28;20317;-89
2022/07/10 10:31:16;;;;;;;5.07;1.95;;;24.10;99.90;;;;;;5021284;28;20046;-88
2022/07/10 10:34:06;;;;;;;5.18;1.38;;;23.10;99.90;;;;;;5015325;28;20046;-90
2022/07/10 10:36:54;;;;;;;4.30;1.70;;;22.20;99.90;;;;;;5014962;28;20154;-90
2022/07/10 10:39:55;;;;;;;2.58;1.25;;;21.40;99.90;;;;;;5007756;28;20074;-89
2022/07/10 10:42:45;;;;;;;4.70;1.67;;;22.00;99.90;;;;;;4995242;28;20460;-89
2022/07/10 10:45:34;;;;;;;3.13;1.60;;;22.80;99.90;;;;;;5008153;28;20061;-89
2022/07/10 10:48:23;;;;;;;8.60;1.73;;;22.90;99.90;;;;;;4993370;28;20053;-89
2022/07/10 10:52:08;;;;;;;3.58;1.50;;;22.50;99.90;;;;;;5018436;28;20061;-87
2022/07/10 10:55:08;;;;;;;3.72;1.60;;;22.00;99.90;;;;;;5008505;28;20052;-89
2022/07/10 10:58:18;;;;;;;1.70;1.00;;;22.70;99.90;;;;;;5025812;28;20051;-91
2022/07/10 11:01:26;;;;;;;2.67;1.05;;;24.10;99.90;;;;;;5018251;28;20451;-93
2022/07/10 11:04:15;;;;;;;2.97;1.17;;;23.60;99.90;;;;;;5016088;28;20042;-91
2022/07/10 11:07:03;;;;;;;1.90;1.05;;;22.40;99.90;;;;;;5019341;28;20052;-91
2022/07/10 11:09:50;;;;;;;6.72;1.20;;;23.50;99.90;;;;;;5020358;28;20055;-91
2022/07/10 11:13:02;;;;;;;5.72;1.50;;;25.00;99.90;;;;;;5029513;28;20355;-92
2022/07/10 11:15:52;;;;;;;1.92;1.02;;;26.20;99.90;;;;;;5017851;28;20046;-91
2022/07/10 11:18:42;;;;;;;3.60;1.20;;;26.80;99.90;;;;;;5019957;28;20061;-91
2022/07/10 11:21:47;;;;;;;3.40;1.15;;;26.50;99.90;;;;;;5015578;28;20046;-93
2022/07/10 11:24:59;;;;;;;5.45;1.17;;;27.10;99.90;;;;;;5004238;28;20140;-92
2022/07/10 11:28:09;;;;;;;2.15;1.20;;;27.50;99.90;;;;;;5012518;28;20380;-92
2022/07/10 11:30:56;;;;;;;2.92;1.15;;;26.90;99.90;;;;;;5019112;28;20105;-89
2022/07/10 11:33:48;;;;;;;5.38;1.08;;;26.10;99.90;;;;;;5025290;28;20046;-92
2022/07/10 11:36:39;;;;;;;2.70;0.90;;;26.80;99.90;;;;;;5023085;28;20065;-92
2022/07/10 11:39:26;;;;;;;2.42;0.88;;;27.40;99.90;;;;;;5023655;28;20492;-91
2022/07/10 11:42:14;;;;;;;3.42;1.23;;;26.50;99.90;;;;;;5012139;28;20046;-90
2022/07/10 11:45:28;;;;;;;2.05;0.90;;;26.80;99.90;;;;;;5015813;28;20118;-89
2022/07/10 11:48:18;;;;;;;4.43;0.90;;;27.80;99.90;;;;;;5006540;28;20042;-90
2022/07/10 11:51:16;;;;;;;5.28;1.30;;;27.20;99.90;;;;;;5008613;28;20057;-90
2022/07/10 11:54:15;;;;;;;2.78;1.02;;;27.70;99.90;;;;;;5005581;28;20086;-91
2022/07/10 11:57:10;;;;;;;4.55;1.00;;;27.30;99.90;;;;;;5018868;28;20046;-90
2022/07/10 11:59:57;;;;;;;5.57;1.25;;;27.90;99.90;;;;;;5028877;28;20080;-90
2022/07/10 12:02:45;;;;;;;4.03;1.00;;;27.90;99.90;;;;;;5018625;28;20416;-93
2022/07/10 12:05:37;;;;;;;5.90;1.10;;;28.30;99.90;;;;;;5001748;28;20050;-88
2022/07/10 12:08:25;;;;;;;;;;;29.00;99.90;;;;;;5006341;28;20038;-88
2022/07/10 12:11:14;;;;;;;8.65;1.33;;;28.70;99.90;;;;;;5021935;28;19921;-91
2022/07/10 12:14:20;;;;;;;5.18;1.02;;;28.40;99.90;;;;;;5031406;28;20045;-89
2022/07/10 12:17:13;;;;;;;3.40;1.05;;;28.60;99.90;;;;;;5012074;28;20116;-91
2022/07/10 12:20:03;;;;;;;7.55;1.02;;;28.90;99.90;;;;;;5020946;28;20045;-90
2022/07/10 12:22:53;;;;;;;2.50;0.77;;;28.90;99.90;;;;;;5009352;28;20156;-88
2022/07/10 12:25:45;;;;;;;3.30;0.80;;;29.30;99.90;;;;;;5028527;28;20056;-90
2022/07/10 12:28:53;;;;;;;5.68;1.17;;;29.00;99.90;;;;;;5014277;28;20348;-91
2022/07/10 12:31:42;;;;;;;4.45;0.80;;;29.20;99.90;;;;;;5024012;28;20473;-92
2022/07/10 12:34:42;;;;;;;3.40;0.70;;;29.50;99.90;;;;;;5003056;28;20046;-89
2022/07/10 12:37:29;;;;;;;2.20;1.00;;;28.50;99.90;;;;;;5022451;28;20168;-90
2022/07/10 12:40:33;;;;;;;4.13;1.20;;;28.80;99.90;;;;;;5024735;28;20045;-88
2022/07/10 12:43:28;;;;;;;3.50;0.80;;;28.00;99.90;;;;;;5015980;28;20049;-89
2022/07/10 12:46:21;;;;;;;4.18;0.95;;;28.10;99.90;;;;;;5018469;28;20064;-90
2022/07/10 12:49:14;;;;;;;4.65;1.17;;;28.80;99.90;;;;;;5026592;28;20178;-90
2022/07/10 12:52:03;;;;;;;4.75;0.85;;;29.70;99.90;;;;;;5015094;28;20056;-90
2022/07/10 12:55:15;;;;;;;5.32;1.50;;;30.10;99.90;;;;;;5009103;28;20415;-90
2022/07/10 12:58:14;;;;;;;1.48;0.60;;;28.70;99.90;;;;;;5003831;28;20041;-90
2022/07/10 13:01:01;;;;;;;2.75;0.82;;;29.20;99.90;;;;;;5018542;28;20355;-89
2022/07/10 13:03:56;;;;;;;1.67;0.60;;;28.90;99.90;;;;;;5009797;28;20049;-90
2022/07/10 13:06:44;;;;;;;3.88;0.80;;;28.80;99.90;;;;;;4995393;28;20088;-90
2022/07/10 13:09:34;;;;;;;4.55;0.70;;;28.90;99.90;;;;;;5028503;28;20050;-90
2022/07/10 13:12:22;;;;;;;2.05;0.80;;;28.50;99.90;;;;;;5018138;28;20070;-89
2022/07/10 13:15:09;;;;;;;4.03;0.90;;;28.20;99.90;;;;;;5020119;28;20050;-91
2022/07/10 13:17:57;;;;;;;2.15;0.75;;;29.00;99.90;;;;;;5022063;28;20088;-88
2022/07/10 13:20:46;;;;;;;2.47;0.82;;;29.60;99.90;;;;;;5012713;28;20046;-88
2022/07/10 13:23:33;;;;;;;3.35;0.63;;;28.90;99.90;;;;;;5023190;28;20121;-89
2022/07/10 13:26:20;;;;;;;3.53;0.60;;;28.80;99.90;;;;;;5018801;28;20430;-88
2022/07/10 13:29:08;;;;;;;4.05;0.80;;;29.20;99.90;;;;;;5002321;28;20340;-89
2022/07/10 13:31:55;;;;;;;3.75;0.90;;;28.80;99.90;;;;;;5012502;28;20046;-88
2022/07/10 13:34:45;;;;;;;3.55;0.65;;;28.80;99.90;;;;;;4993127;28;20038;-90
2022/07/10 13:37:32;;;;;;;1.83;0.60;;;29.80;99.90;;;;;;5020697;28;20180;-89
2022/07/10 13:40:22;;;;;;;1.63;0.60;;;30.10;99.90;;;;;;4993143;28;20384;-91
2022/07/10 13:43:10;;;;;;;1.67;0.70;;;29.90;99.90;;;;;;5020636;28;20041;-91
2022/07/10 13:46:03;;;;;;;1.90;0.70;;;29.70;99.90;;;;;;5023264;28;20045;-89
2022/07/10 13:48:50;;;;;;;2.45;0.98;;;30.30;99.90;;;;;;5004846;28;20124;-91
2022/07/10 13:51:38;;;;;;;1.92;0.55;;;29.20;99.90;;;;;;5013337;28;20336;-89
2022/07/10 13:54:25;;;;;;;4.90;1.05;;;28.70;99.90;;;;;;5026586;28;20052;-92
2022/07/10 13:57:13;;;;;;;2.45;0.75;;;29.00;99.90;;;;;;5023989;28;20057;-89
2022/07/10 14:00:00;;;;;;;2.10;0.73;;;28.50;99.90;;;;;;5019110;28;20520;-88
2022/07/10 14:02:47;;;;;;;2.88;0.90;;;28.10;99.90;;;;;;5017873;28;20061;-89
2022/07/10 14:05:36;;;;;;;2.53;0.50;;;28.50;99.90;;;;;;5017664;28;20049;-89
2022/07/10 14:08:24;;;;;;;3.72;0.80;;;29.00;99.90;;;;;;5015326;28;20491;-89
2022/07/10 14:11:13;;;;;;;3.28;0.57;;;29.20;99.90;;;;;;5000856;28;20046;-92
2022/07/10 14:14:01;;;;;;;2.53;0.75;;;29.70;99.90;;;;;;4995321;28;20041;-89
2022/07/10 14:16:49;;;;;;;3.15;0.50;;;30.70;1.00;;;;;;5001170;28;20069;-89
2022/07/10 14:19:40;;;;;;;3.15;0.60;;;31.00;99.90;;;;;;5014792;28;20054;-89
2022/07/10 14:22:28;;;;;;;1.75;0.70;;;30.90;99.90;;;;;;5011033;28;20104;-89
2022/07/10 14:25:18;;;;;;;5.70;0.50;;;31.10;1.00;;;;;;5011411;28;20038;-88
2022/07/10 14:28:06;;;;;;;1.75;0.50;;;30.90;99.90;;;;;;5020076;28;20037;-90
2022/07/10 14:30:54;;;;;;;4.63;0.93;;;30.70;1.00;;;;;;5022432;28;20050;-89
2022/07/10 14:33:41;;;;;;;3.05;0.80;;;29.80;1.00;;;;;;5022472;28;20045;-92
2022/07/10 14:36:29;;;;;;;2.42;0.63;;;29.90;1.00;;;;;;5000184;28;20049;-91
2022/07/10 14:39:16;;;;;;;2.70;1.00;;;29.50;1.00;;;;;;4996198;28;20463;-90
2022/07/10 14:42:09;;;;;;;2.28;1.20;;;29.20;1.00;;;;;;5014744;28;20050;-90
2022/07/10 14:44:56;;;;;;;;;;;28.90;1.00;;;;;;5014635;28;20042;-91
2022/07/10 14:47:43;;;;;;;4.03;0.90;;;28.50;1.00;;;;;;5013225;28;20358;-91
2022/07/10 14:50:33;;;;;;;2.65;1.00;;;29.00;1.00;;;;;;5012394;28;20042;-87
2022/07/10 14:53:20;;;;;;;4.03;0.93;;;29.40;1.00;;;;;;5004274;28;20039;-87